sensor_id;sensor_type;location;lat;lon;timestamp;P1;durP1;ratioP1;P2;durP2;ratioP2
20725;SDS011;10524;48.132;8.518;2023-03-01T00:02:06;49.70;;;26.75;;
20725;SDS011;10524;48.132;8.518;2023-03-01T00:04:31;50.53;;;28.10;;
20725;SDS011;10524;48.132;8.518;2023-03-01T00:06:57;52.00;;;25.88;;
20725;SDS011;10524;48.132;8.518;2023-03-01T00:09:23;46.72;;;24.77;;
20725;SDS011;10524;48.132;8.518;2023-03-01T00:11:48;49.50;;;26.05;;
20725;SDS011;10524;48.132;8.518;2023-03-01T00:14:14;54.67;;;29.27;;
20725;SDS011;10524;48.132;8.518;2023-03-01T00:16:42;53.60;;;27.30;;
20725;SDS011;10524;48.132;8.518;2023-03-01T00:19:13;53.47;;;27.42;;
20725;SDS011;10524;48.132;8.518;2023-03-01T00:21:42;50.35;;;26.52;;
20725;SDS011;10524;48.132;8.518;2023-03-01T00:24:09;53.83;;;27.63;;
20725;SDS011;10524;48.132;8.518;2023-03-01T00:26:35;58.40;;;30.15;;
20725;SDS011;10524;48.132;8.518;2023-03-01T00:29:01;56.90;;;28.73;;
20725;SDS011;10524;48.132;8.518;2023-03-01T00:31:28;56.42;;;28.85;;
20725;SDS011;10524;48.132;8.518;2023-03-01T00:33:55;53.30;;;27.73;;
20725;SDS011;10524;48.132;8.518;2023-03-01T00:36:23;54.17;;;27.77;;
20725;SDS011;10524;48.132;8.518;2023-03-01T00:38:50;51.35;;;27.20;;
20725;SDS011;10524;48.132;8.518;2023-03-01T00:41:17;49.03;;;25.77;;
20725;SDS011;10524;48.132;8.518;2023-03-01T00:43:43;54.50;;;25.27;;
20725;SDS011;10524;48.132;8.518;2023-03-01T00:46:13;51.03;;;26.92;;
20725;SDS011;10524;48.132;8.518;2023-03-01T00:48:40;50.47;;;27.43;;
20725;SDS011;10524;48.132;8.518;2023-03-01T00:51:07;47.83;;;25.35;;
20725;SDS011;10524;48.132;8.518;2023-03-01T00:53:34;45.03;;;23.73;;
20725;SDS011;10524;48.132;8.518;2023-03-01T00:56:00;45.65;;;25.67;;
20725;SDS011;10524;48.132;8.518;2023-03-01T00:58:26;47.97;;;25.40;;
20725;SDS011;10524;48.132;8.518;2023-03-01T01:00:52;47.72;;;25.38;;
20725;SDS011;10524;48.132;8.518;2023-03-01T01:03:18;49.67;;;26.33;;
20725;SDS011;10524;48.132;8.518;2023-03-01T01:05:44;49.47;;;26.67;;
20725;SDS011;10524;48.132;8.518;2023-03-01T01:08:09;52.53;;;27.48;;
20725;SDS011;10524;48.132;8.518;2023-03-01T01:10:35;49.22;;;26.30;;
20725;SDS011;10524;48.132;8.518;2023-03-01T01:13:01;52.53;;;27.63;;
20725;SDS011;10524;48.132;8.518;2023-03-01T01:15:27;46.88;;;25.52;;
20725;SDS011;10524;48.132;8.518;2023-03-01T01:17:52;45.97;;;25.90;;
20725;SDS011;10524;48.132;8.518;2023-03-01T01:20:19;49.80;;;26.33;;
20725;SDS011;10524;48.132;8.518;2023-03-01T01:22:45;51.10;;;28.27;;
20725;SDS011;10524;48.132;8.518;2023-03-01T01:25:10;51.15;;;28.65;;
20725;SDS011;10524;48.132;8.518;2023-03-01T01:27:36;50.15;;;26.55;;
20725;SDS011;10524;48.132;8.518;2023-03-01T01:30:02;51.85;;;27.40;;
20725;SDS011;10524;48.132;8.518;2023-03-01T01:32:29;56.72;;;30.80;;
20725;SDS011;10524;48.132;8.518;2023-03-01T01:34:54;56.80;;;29.45;;
20725;SDS011;10524;48.132;8.518;2023-03-01T01:37:20;47.47;;;27.60;;
20725;SDS011;10524;48.132;8.518;2023-03-01T01:39:46;52.25;;;28.63;;
20725;SDS011;10524;48.132;8.518;2023-03-01T01:42:15;43.95;;;24.55;;
20725;SDS011;10524;48.132;8.518;2023-03-01T01:44:42;49.33;;;27.35;;
20725;SDS011;10524;48.132;8.518;2023-03-01T01:47:14;47.78;;;26.48;;
20725;SDS011;10524;48.132;8.518;2023-03-01T01:49:48;44.70;;;24.70;;
20725;SDS011;10524;48.132;8.518;2023-03-01T01:52:17;42.90;;;23.75;;
20725;SDS011;10524;48.132;8.518;2023-03-01T01:57:35;47.90;;;26.15;;
20725;SDS011;10524;48.132;8.518;2023-03-01T02:00:05;48.78;;;27.35;;
20725;SDS011;10524;48.132;8.518;2023-03-01T02:02:33;50.13;;;26.05;;
20725;SDS011;10524;48.132;8.518;2023-03-01T02:05:02;48.17;;;26.90;;
20725;SDS011;10524;48.132;8.518;2023-03-01T02:07:35;46.70;;;26.25;;
20725;SDS011;10524;48.132;8.518;2023-03-01T02:10:04;50.30;;;27.75;;
20725;SDS011;10524;48.132;8.518;2023-03-01T02:12:30;48.63;;;27.25;;
20725;SDS011;10524;48.132;8.518;2023-03-01T02:14:56;46.20;;;27.13;;
20725;SDS011;10524;48.132;8.518;2023-03-01T02:17:22;47.35;;;26.88;;
20725;SDS011;10524;48.132;8.518;2023-03-01T02:22:32;47.65;;;25.80;;
20725;SDS011;10524;48.132;8.518;2023-03-01T02:27:56;44.35;;;25.52;;
20725;SDS011;10524;48.132;8.518;2023-03-01T02:30:48;46.85;;;27.17;;
20725;SDS011;10524;48.132;8.518;2023-03-01T02:33:34;47.38;;;24.85;;
20725;SDS011;10524;48.132;8.518;2023-03-01T02:36:03;50.78;;;28.13;;
20725;SDS011;10524;48.132;8.518;2023-03-01T02:38:33;44.03;;;25.13;;
20725;SDS011;10524;48.132;8.518;2023-03-01T02:40:58;42.75;;;21.80;;
20725;SDS011;10524;48.132;8.518;2023-03-01T02:43:27;42.28;;;24.17;;
20725;SDS011;10524;48.132;8.518;2023-03-01T02:45:57;42.78;;;21.52;;
20725;SDS011;10524;48.132;8.518;2023-03-01T02:48:24;40.03;;;23.17;;
20725;SDS011;10524;48.132;8.518;2023-03-01T02:56:42;40.80;;;24.25;;
20725;SDS011;10524;48.132;8.518;2023-03-01T02:59:09;40.30;;;24.65;;
20725;SDS011;10524;48.132;8.518;2023-03-01T03:01:35;37.00;;;19.75;;
20725;SDS011;10524;48.132;8.518;2023-03-01T03:04:07;43.72;;;24.75;;
20725;SDS011;10524;48.132;8.518;2023-03-01T03:06:35;36.03;;;19.40;;
20725;SDS011;10524;48.132;8.518;2023-03-01T03:09:01;41.53;;;21.23;;
20725;SDS011;10524;48.132;8.518;2023-03-01T03:11:28;44.97;;;25.92;;
20725;SDS011;10524;48.132;8.518;2023-03-01T03:13:55;43.38;;;23.00;;
20725;SDS011;10524;48.132;8.518;2023-03-01T03:16:21;44.28;;;22.15;;
20725;SDS011;10524;48.132;8.518;2023-03-01T03:18:46;43.88;;;22.80;;
20725;SDS011;10524;48.132;8.518;2023-03-01T03:21:12;39.92;;;21.55;;
20725;SDS011;10524;48.132;8.518;2023-03-01T03:23:38;45.25;;;22.50;;
20725;SDS011;10524;48.132;8.518;2023-03-01T03:26:04;41.50;;;22.40;;
20725;SDS011;10524;48.132;8.518;2023-03-01T03:28:31;42.63;;;22.08;;
20725;SDS011;10524;48.132;8.518;2023-03-01T03:30:58;39.83;;;22.35;;
20725;SDS011;10524;48.132;8.518;2023-03-01T03:33:28;40.20;;;20.88;;
20725;SDS011;10524;48.132;8.518;2023-03-01T03:35:55;41.80;;;22.08;;
20725;SDS011;10524;48.132;8.518;2023-03-01T03:38:20;39.30;;;21.25;;
20725;SDS011;10524;48.132;8.518;2023-03-01T03:40:48;38.65;;;21.42;;
20725;SDS011;10524;48.132;8.518;2023-03-01T03:43:16;39.47;;;21.35;;
20725;SDS011;10524;48.132;8.518;2023-03-01T03:45:47;37.90;;;20.90;;
20725;SDS011;10524;48.132;8.518;2023-03-01T03:48:14;38.13;;;21.05;;
20725;SDS011;10524;48.132;8.518;2023-03-01T03:50:40;41.13;;;22.15;;
20725;SDS011;10524;48.132;8.518;2023-03-01T03:53:09;39.55;;;20.92;;
20725;SDS011;10524;48.132;8.518;2023-03-01T03:55:36;38.97;;;21.85;;
20725;SDS011;10524;48.132;8.518;2023-03-01T03:58:04;36.42;;;19.77;;
20725;SDS011;10524;48.132;8.518;2023-03-01T04:00:35;37.17;;;20.77;;
20725;SDS011;10524;48.132;8.518;2023-03-01T04:03:03;39.72;;;21.27;;
20725;SDS011;10524;48.132;8.518;2023-03-01T04:05:29;38.25;;;21.13;;
20725;SDS011;10524;48.132;8.518;2023-03-01T04:07:55;38.20;;;21.58;;
20725;SDS011;10524;48.132;8.518;2023-03-01T04:10:30;41.90;;;22.27;;
20725;SDS011;10524;48.132;8.518;2023-03-01T04:12:58;37.75;;;21.23;;
20725;SDS011;10524;48.132;8.518;2023-03-01T04:15:24;36.47;;;21.60;;
20725;SDS011;10524;48.132;8.518;2023-03-01T04:17:52;41.22;;;22.25;;
20725;SDS011;10524;48.132;8.518;2023-03-01T04:20:23;37.17;;;20.25;;
20725;SDS011;10524;48.132;8.518;2023-03-01T04:22:57;37.75;;;20.00;;
20725;SDS011;10524;48.132;8.518;2023-03-01T04:25:25;37.80;;;21.77;;
20725;SDS011;10524;48.132;8.518;2023-03-01T04:27:50;41.20;;;21.05;;
20725;SDS011;10524;48.132;8.518;2023-03-01T04:30:16;41.17;;;21.52;;
20725;SDS011;10524;48.132;8.518;2023-03-01T04:32:42;37.65;;;20.70;;
20725;SDS011;10524;48.132;8.518;2023-03-01T04:35:08;40.03;;;20.95;;
20725;SDS011;10524;48.132;8.518;2023-03-01T04:37:34;40.15;;;21.75;;
20725;SDS011;10524;48.132;8.518;2023-03-01T04:40:00;40.85;;;22.90;;
20725;SDS011;10524;48.132;8.518;2023-03-01T04:42:37;41.25;;;22.88;;
20725;SDS011;10524;48.132;8.518;2023-03-01T04:45:02;38.25;;;22.05;;
20725;SDS011;10524;48.132;8.518;2023-03-01T04:47:37;39.42;;;20.42;;
20725;SDS011;10524;48.132;8.518;2023-03-01T04:50:08;39.42;;;21.85;;
20725;SDS011;10524;48.132;8.518;2023-03-01T04:52:34;39.83;;;21.88;;
20725;SDS011;10524;48.132;8.518;2023-03-01T04:55:01;43.00;;;22.13;;
20725;SDS011;10524;48.132;8.518;2023-03-01T04:57:28;39.60;;;21.70;;
20725;SDS011;10524;48.132;8.518;2023-03-01T04:59:54;38.83;;;22.60;;
20725;SDS011;10524;48.132;8.518;2023-03-01T05:02:20;43.10;;;22.40;;
20725;SDS011;10524;48.132;8.518;2023-03-01T05:04:45;36.17;;;20.55;;
20725;SDS011;10524;48.132;8.518;2023-03-01T05:07:11;43.70;;;22.95;;
20725;SDS011;10524;48.132;8.518;2023-03-01T05:09:38;41.92;;;22.58;;
20725;SDS011;10524;48.132;8.518;2023-03-01T05:12:04;41.10;;;22.88;;
20725;SDS011;10524;48.132;8.518;2023-03-01T05:14:30;38.15;;;21.85;;
20725;SDS011;10524;48.132;8.518;2023-03-01T05:16:55;38.65;;;22.08;;
20725;SDS011;10524;48.132;8.518;2023-03-01T05:19:28;38.65;;;22.17;;
20725;SDS011;10524;48.132;8.518;2023-03-01T05:21:55;45.38;;;23.70;;
20725;SDS011;10524;48.132;8.518;2023-03-01T05:24:31;51.95;;;30.98;;
20725;SDS011;10524;48.132;8.518;2023-03-01T05:26:59;36.45;;;21.85;;
20725;SDS011;10524;48.132;8.518;2023-03-01T05:29:26;40.45;;;21.98;;
20725;SDS011;10524;48.132;8.518;2023-03-01T05:31:53;39.08;;;22.00;;
20725;SDS011;10524;48.132;8.518;2023-03-01T05:34:24;39.53;;;22.77;;
20725;SDS011;10524;48.132;8.518;2023-03-01T05:36:52;39.05;;;22.40;;
20725;SDS011;10524;48.132;8.518;2023-03-01T05:39:21;39.38;;;22.27;;
20725;SDS011;10524;48.132;8.518;2023-03-01T05:41:51;39.60;;;21.48;;
20725;SDS011;10524;48.132;8.518;2023-03-01T05:44:18;39.88;;;22.67;;
20725;SDS011;10524;48.132;8.518;2023-03-01T05:46:45;39.85;;;21.58;;
20725;SDS011;10524;48.132;8.518;2023-03-01T05:49:11;41.47;;;22.42;;
20725;SDS011;10524;48.132;8.518;2023-03-01T05:51:38;40.17;;;22.50;;
20725;SDS011;10524;48.132;8.518;2023-03-01T05:54:06;39.90;;;21.92;;
20725;SDS011;10524;48.132;8.518;2023-03-01T05:56:37;41.13;;;21.95;;
20725;SDS011;10524;48.132;8.518;2023-03-01T05:59:03;39.67;;;21.30;;
20725;SDS011;10524;48.132;8.518;2023-03-01T06:01:32;42.25;;;22.23;;
20725;SDS011;10524;48.132;8.518;2023-03-01T06:03:59;39.63;;;22.60;;
20725;SDS011;10524;48.132;8.518;2023-03-01T06:06:25;39.45;;;22.17;;
20725;SDS011;10524;48.132;8.518;2023-03-01T06:08:51;40.95;;;23.27;;
20725;SDS011;10524;48.132;8.518;2023-03-01T06:11:18;41.22;;;22.70;;
20725;SDS011;10524;48.132;8.518;2023-03-01T06:13:44;41.22;;;22.98;;
20725;SDS011;10524;48.132;8.518;2023-03-01T06:16:10;42.05;;;22.48;;
20725;SDS011;10524;48.132;8.518;2023-03-01T06:18:36;38.20;;;22.48;;
20725;SDS011;10524;48.132;8.518;2023-03-01T06:21:02;39.63;;;23.15;;
20725;SDS011;10524;48.132;8.518;2023-03-01T06:23:28;38.40;;;21.85;;
20725;SDS011;10524;48.132;8.518;2023-03-01T06:25:54;39.78;;;21.85;;
20725;SDS011;10524;48.132;8.518;2023-03-01T06:28:19;41.45;;;21.83;;
20725;SDS011;10524;48.132;8.518;2023-03-01T06:30:45;42.00;;;22.58;;
20725;SDS011;10524;48.132;8.518;2023-03-01T06:33:11;42.60;;;23.75;;
20725;SDS011;10524;48.132;8.518;2023-03-01T06:35:36;42.38;;;23.63;;
20725;SDS011;10524;48.132;8.518;2023-03-01T06:38:03;44.20;;;22.70;;
20725;SDS011;10524;48.132;8.518;2023-03-01T06:40:30;42.20;;;22.95;;
20725;SDS011;10524;48.132;8.518;2023-03-01T06:42:56;42.55;;;23.30;;
20725;SDS011;10524;48.132;8.518;2023-03-01T06:45:23;43.35;;;23.52;;
20725;SDS011;10524;48.132;8.518;2023-03-01T06:47:49;43.08;;;23.55;;
20725;SDS011;10524;48.132;8.518;2023-03-01T06:50:15;45.30;;;24.15;;
20725;SDS011;10524;48.132;8.518;2023-03-01T06:52:42;42.40;;;23.60;;
20725;SDS011;10524;48.132;8.518;2023-03-01T06:55:09;46.08;;;24.35;;
20725;SDS011;10524;48.132;8.518;2023-03-01T06:57:36;42.38;;;22.98;;
20725;SDS011;10524;48.132;8.518;2023-03-01T07:00:05;42.25;;;23.73;;
20725;SDS011;10524;48.132;8.518;2023-03-01T07:02:32;43.50;;;25.13;;
20725;SDS011;10524;48.132;8.518;2023-03-01T07:04:57;44.17;;;24.90;;
20725;SDS011;10524;48.132;8.518;2023-03-01T07:07:23;43.13;;;24.30;;
20725;SDS011;10524;48.132;8.518;2023-03-01T07:09:49;44.22;;;25.05;;
20725;SDS011;10524;48.132;8.518;2023-03-01T07:12:15;45.58;;;24.45;;
20725;SDS011;10524;48.132;8.518;2023-03-01T07:14:41;45.03;;;25.15;;
20725;SDS011;10524;48.132;8.518;2023-03-01T07:17:08;44.38;;;24.88;;
20725;SDS011;10524;48.132;8.518;2023-03-01T07:19:34;43.42;;;23.83;;
20725;SDS011;10524;48.132;8.518;2023-03-01T07:21:59;45.75;;;24.75;;
20725;SDS011;10524;48.132;8.518;2023-03-01T07:24:25;43.00;;;24.67;;
20725;SDS011;10524;48.132;8.518;2023-03-01T07:26:51;43.90;;;24.75;;
20725;SDS011;10524;48.132;8.518;2023-03-01T07:29:18;45.40;;;24.42;;
20725;SDS011;10524;48.132;8.518;2023-03-01T07:31:44;41.10;;;23.73;;
20725;SDS011;10524;48.132;8.518;2023-03-01T07:34:10;42.45;;;23.45;;
20725;SDS011;10524;48.132;8.518;2023-03-01T07:36:36;42.88;;;23.17;;
20725;SDS011;10524;48.132;8.518;2023-03-01T07:39:02;44.88;;;24.13;;
20725;SDS011;10524;48.132;8.518;2023-03-01T07:41:29;44.88;;;24.23;;
20725;SDS011;10524;48.132;8.518;2023-03-01T07:43:54;47.08;;;25.50;;
20725;SDS011;10524;48.132;8.518;2023-03-01T07:46:20;44.63;;;24.63;;
20725;SDS011;10524;48.132;8.518;2023-03-01T07:48:46;41.85;;;23.50;;
20725;SDS011;10524;48.132;8.518;2023-03-01T07:51:12;43.88;;;24.35;;
20725;SDS011;10524;48.132;8.518;2023-03-01T07:53:38;51.35;;;23.00;;
20725;SDS011;10524;48.132;8.518;2023-03-01T07:56:06;42.95;;;23.13;;
20725;SDS011;10524;48.132;8.518;2023-03-01T07:58:34;42.60;;;23.60;;
20725;SDS011;10524;48.132;8.518;2023-03-01T08:01:01;42.08;;;23.05;;
20725;SDS011;10524;48.132;8.518;2023-03-01T08:03:28;44.55;;;23.33;;
20725;SDS011;10524;48.132;8.518;2023-03-01T08:05:53;41.35;;;23.60;;
20725;SDS011;10524;48.132;8.518;2023-03-01T08:08:19;36.00;;;22.30;;
20725;SDS011;10524;48.132;8.518;2023-03-01T08:10:45;38.55;;;22.35;;
20725;SDS011;10524;48.132;8.518;2023-03-01T08:13:10;37.20;;;21.98;;
20725;SDS011;10524;48.132;8.518;2023-03-01T08:15:36;39.97;;;23.95;;
20725;SDS011;10524;48.132;8.518;2023-03-01T08:18:02;37.00;;;22.00;;
20725;SDS011;10524;48.132;8.518;2023-03-01T08:20:27;35.45;;;21.60;;
20725;SDS011;10524;48.132;8.518;2023-03-01T08:22:53;37.03;;;21.23;;
20725;SDS011;10524;48.132;8.518;2023-03-01T08:25:18;38.92;;;22.38;;
20725;SDS011;10524;48.132;8.518;2023-03-01T08:27:44;39.38;;;23.08;;
20725;SDS011;10524;48.132;8.518;2023-03-01T08:30:10;38.75;;;22.63;;
20725;SDS011;10524;48.132;8.518;2023-03-01T08:32:37;36.75;;;21.15;;
20725;SDS011;10524;48.132;8.518;2023-03-01T08:35:03;33.53;;;20.48;;
20725;SDS011;10524;48.132;8.518;2023-03-01T08:37:29;37.20;;;22.27;;
20725;SDS011;10524;48.132;8.518;2023-03-01T08:39:57;35.58;;;22.35;;
20725;SDS011;10524;48.132;8.518;2023-03-01T08:42:23;36.30;;;22.70;;
20725;SDS011;10524;48.132;8.518;2023-03-01T08:44:49;37.38;;;21.25;;
20725;SDS011;10524;48.132;8.518;2023-03-01T08:47:14;34.30;;;21.30;;
20725;SDS011;10524;48.132;8.518;2023-03-01T08:49:40;35.63;;;22.42;;
20725;SDS011;10524;48.132;8.518;2023-03-01T08:52:06;40.95;;;22.77;;
20725;SDS011;10524;48.132;8.518;2023-03-01T08:54:31;34.97;;;21.05;;
20725;SDS011;10524;48.132;8.518;2023-03-01T08:56:57;37.35;;;21.45;;
20725;SDS011;10524;48.132;8.518;2023-03-01T08:59:24;37.30;;;21.40;;
20725;SDS011;10524;48.132;8.518;2023-03-01T09:01:50;38.25;;;21.90;;
20725;SDS011;10524;48.132;8.518;2023-03-01T09:04:16;38.25;;;23.52;;
20725;SDS011;10524;48.132;8.518;2023-03-01T09:06:41;39.50;;;22.42;;
20725;SDS011;10524;48.132;8.518;2023-03-01T09:09:10;34.17;;;21.67;;
20725;SDS011;10524;48.132;8.518;2023-03-01T09:14:05;34.50;;;20.90;;
20725;SDS011;10524;48.132;8.518;2023-03-01T09:16:31;34.92;;;21.65;;
20725;SDS011;10524;48.132;8.518;2023-03-01T09:19:00;34.58;;;20.63;;
20725;SDS011;10524;48.132;8.518;2023-03-01T09:21:27;35.83;;;21.33;;
20725;SDS011;10524;48.132;8.518;2023-03-01T09:23:53;39.75;;;22.55;;
20725;SDS011;10524;48.132;8.518;2023-03-01T09:26:21;33.67;;;21.17;;
20725;SDS011;10524;48.132;8.518;2023-03-01T09:28:48;36.72;;;21.23;;
20725;SDS011;10524;48.132;8.518;2023-03-01T09:31:17;35.55;;;21.65;;
20725;SDS011;10524;48.132;8.518;2023-03-01T09:33:45;33.83;;;21.95;;
20725;SDS011;10524;48.132;8.518;2023-03-01T09:36:13;36.90;;;21.88;;
20725;SDS011;10524;48.132;8.518;2023-03-01T09:38:41;38.78;;;22.92;;
20725;SDS011;10524;48.132;8.518;2023-03-01T09:44:10;39.90;;;20.13;;
20725;SDS011;10524;48.132;8.518;2023-03-01T09:46:41;35.40;;;21.35;;
20725;SDS011;10524;48.132;8.518;2023-03-01T09:49:18;36.60;;;21.13;;
20725;SDS011;10524;48.132;8.518;2023-03-01T09:54:44;33.20;;;20.75;;
20725;SDS011;10524;48.132;8.518;2023-03-01T09:57:15;36.38;;;21.65;;
20725;SDS011;10524;48.132;8.518;2023-03-01T10:05:05;36.03;;;21.08;;
20725;SDS011;10524;48.132;8.518;2023-03-01T10:10:37;55.25;;;23.02;;
20725;SDS011;10524;48.132;8.518;2023-03-01T10:13:14;33.50;;;21.45;;
20725;SDS011;10524;48.132;8.518;2023-03-01T10:15:47;33.72;;;20.33;;
20725;SDS011;10524;48.132;8.518;2023-03-01T10:18:34;33.08;;;20.25;;
20725;SDS011;10524;48.132;8.518;2023-03-01T10:21:05;32.05;;;21.85;;
20725;SDS011;10524;48.132;8.518;2023-03-01T10:23:43;39.22;;;20.13;;
20725;SDS011;10524;48.132;8.518;2023-03-01T10:31:24;33.92;;;21.15;;
20725;SDS011;10524;48.132;8.518;2023-03-01T10:33:54;31.40;;;19.13;;
20725;SDS011;10524;48.132;8.518;2023-03-01T10:36:22;32.58;;;20.83;;
20725;SDS011;10524;48.132;8.518;2023-03-01T10:38:50;31.50;;;20.67;;
20725;SDS011;10524;48.132;8.518;2023-03-01T10:41:20;29.35;;;20.50;;
20725;SDS011;10524;48.132;8.518;2023-03-01T10:43:51;37.17;;;21.75;;
20725;SDS011;10524;48.132;8.518;2023-03-01T10:46:40;38.53;;;21.40;;
20725;SDS011;10524;48.132;8.518;2023-03-01T10:49:18;33.65;;;21.05;;
20725;SDS011;10524;48.132;8.518;2023-03-01T10:51:46;32.88;;;22.10;;
20725;SDS011;10524;48.132;8.518;2023-03-01T10:54:21;29.38;;;19.60;;
20725;SDS011;10524;48.132;8.518;2023-03-01T10:56:58;29.45;;;19.58;;
20725;SDS011;10524;48.132;8.518;2023-03-01T10:59:33;31.35;;;20.75;;
20725;SDS011;10524;48.132;8.518;2023-03-01T11:04:58;32.78;;;20.50;;
20725;SDS011;10524;48.132;8.518;2023-03-01T11:07:27;31.55;;;20.88;;
20725;SDS011;10524;48.132;8.518;2023-03-01T11:09:53;29.77;;;20.20;;
20725;SDS011;10524;48.132;8.518;2023-03-01T11:12:20;34.72;;;20.25;;
20725;SDS011;10524;48.132;8.518;2023-03-01T11:14:55;31.30;;;21.48;;
20725;SDS011;10524;48.132;8.518;2023-03-01T11:17:27;33.38;;;21.33;;
20725;SDS011;10524;48.132;8.518;2023-03-01T11:22:29;34.90;;;21.63;;
20725;SDS011;10524;48.132;8.518;2023-03-01T11:24:57;36.67;;;22.42;;
20725;SDS011;10524;48.132;8.518;2023-03-01T11:27:25;33.75;;;21.88;;
20725;SDS011;10524;48.132;8.518;2023-03-01T11:29:55;33.75;;;22.25;;
20725;SDS011;10524;48.132;8.518;2023-03-01T11:32:50;31.30;;;20.20;;
20725;SDS011;10524;48.132;8.518;2023-03-01T11:35:40;39.72;;;21.38;;
20725;SDS011;10524;48.132;8.518;2023-03-01T11:38:23;29.73;;;20.30;;
20725;SDS011;10524;48.132;8.518;2023-03-01T11:41:01;51.47;;;21.10;;
20725;SDS011;10524;48.132;8.518;2023-03-01T11:57:06;33.20;;;20.42;;
20725;SDS011;10524;48.132;8.518;2023-03-01T12:00:03;30.90;;;20.17;;
20725;SDS011;10524;48.132;8.518;2023-03-01T12:05:40;32.05;;;21.13;;
20725;SDS011;10524;48.132;8.518;2023-03-01T12:08:31;30.70;;;20.67;;
20725;SDS011;10524;48.132;8.518;2023-03-01T12:11:14;45.72;;;23.33;;
20725;SDS011;10524;48.132;8.518;2023-03-01T12:19:53;35.65;;;20.27;;
20725;SDS011;10524;48.132;8.518;2023-03-01T12:22:31;29.00;;;18.63;;
20725;SDS011;10524;48.132;8.518;2023-03-01T12:25:20;27.73;;;17.83;;
20725;SDS011;10524;48.132;8.518;2023-03-01T12:33:37;26.48;;;18.75;;
20725;SDS011;10524;48.132;8.518;2023-03-01T12:49:53;22.08;;;15.27;;
20725;SDS011;10524;48.132;8.518;2023-03-01T12:52:41;24.55;;;15.50;;
20725;SDS011;10524;48.132;8.518;2023-03-01T12:58:07;20.70;;;14.57;;
20725;SDS011;10524;48.132;8.518;2023-03-01T13:01:07;21.08;;;15.38;;
20725;SDS011;10524;48.132;8.518;2023-03-01T13:09:43;22.33;;;15.68;;
20725;SDS011;10524;48.132;8.518;2023-03-01T13:31:03;26.48;;;15.90;;
20725;SDS011;10524;48.132;8.518;2023-03-01T13:35:56;30.98;;;17.70;;
20725;SDS011;10524;48.132;8.518;2023-03-01T13:44:17;24.02;;;16.25;;
20725;SDS011;10524;48.132;8.518;2023-03-01T13:46:53;29.15;;;19.00;;
20725;SDS011;10524;48.132;8.518;2023-03-01T13:49:36;24.60;;;16.70;;
20725;SDS011;10524;48.132;8.518;2023-03-01T13:57:40;24.25;;;16.25;;
20725;SDS011;10524;48.132;8.518;2023-03-01T14:00:26;23.00;;;15.82;;
20725;SDS011;10524;48.132;8.518;2023-03-01T14:05:36;25.08;;;16.85;;
20725;SDS011;10524;48.132;8.518;2023-03-01T14:08:04;26.00;;;16.75;;
20725;SDS011;10524;48.132;8.518;2023-03-01T14:10:36;24.33;;;16.95;;
20725;SDS011;10524;48.132;8.518;2023-03-01T14:13:20;24.10;;;17.02;;
20725;SDS011;10524;48.132;8.518;2023-03-01T14:19:18;31.50;;;19.67;;
20725;SDS011;10524;48.132;8.518;2023-03-01T14:21:49;24.52;;;17.02;;
20725;SDS011;10524;48.132;8.518;2023-03-01T14:25:06;23.83;;;16.98;;
20725;SDS011;10524;48.132;8.518;2023-03-01T14:27:39;25.75;;;17.38;;
20725;SDS011;10524;48.132;8.518;2023-03-01T14:30:43;24.92;;;16.10;;
20725;SDS011;10524;48.132;8.518;2023-03-01T14:33:16;23.13;;;16.80;;
20725;SDS011;10524;48.132;8.518;2023-03-01T14:36:13;24.70;;;17.08;;
20725;SDS011;10524;48.132;8.518;2023-03-01T14:38:42;23.20;;;16.55;;
20725;SDS011;10524;48.132;8.518;2023-03-01T14:41:16;27.70;;;17.60;;
20725;SDS011;10524;48.132;8.518;2023-03-01T14:43:47;25.67;;;17.37;;
20725;SDS011;10524;48.132;8.518;2023-03-01T14:46:20;24.38;;;16.42;;
20725;SDS011;10524;48.132;8.518;2023-03-01T14:48:50;29.00;;;18.30;;
20725;SDS011;10524;48.132;8.518;2023-03-01T14:51:17;25.08;;;17.40;;
20725;SDS011;10524;48.132;8.518;2023-03-01T14:53:43;32.33;;;17.35;;
20725;SDS011;10524;48.132;8.518;2023-03-01T14:56:13;29.63;;;17.88;;
20725;SDS011;10524;48.132;8.518;2023-03-01T14:58:40;25.38;;;16.98;;
20725;SDS011;10524;48.132;8.518;2023-03-01T15:01:06;25.40;;;17.13;;
20725;SDS011;10524;48.132;8.518;2023-03-01T15:03:37;25.73;;;17.15;;
20725;SDS011;10524;48.132;8.518;2023-03-01T15:06:20;24.75;;;17.48;;
20725;SDS011;10524;48.132;8.518;2023-03-01T15:08:48;25.55;;;17.35;;
20725;SDS011;10524;48.132;8.518;2023-03-01T15:11:19;27.48;;;18.25;;
20725;SDS011;10524;48.132;8.518;2023-03-01T15:14:27;27.63;;;17.77;;
20725;SDS011;10524;48.132;8.518;2023-03-01T15:20:14;29.05;;;17.60;;
20725;SDS011;10524;48.132;8.518;2023-03-01T15:25:20;24.55;;;16.25;;
20725;SDS011;10524;48.132;8.518;2023-03-01T15:27:48;29.90;;;18.92;;
20725;SDS011;10524;48.132;8.518;2023-03-01T15:30:21;28.33;;;18.25;;
20725;SDS011;10524;48.132;8.518;2023-03-01T15:33:15;27.02;;;17.63;;
20725;SDS011;10524;48.132;8.518;2023-03-01T15:35:48;25.42;;;17.65;;
20725;SDS011;10524;48.132;8.518;2023-03-01T15:38:27;26.80;;;16.77;;
20725;SDS011;10524;48.132;8.518;2023-03-01T15:41:22;25.50;;;17.10;;
20725;SDS011;10524;48.132;8.518;2023-03-01T15:46:52;31.38;;;17.88;;
20725;SDS011;10524;48.132;8.518;2023-03-01T15:49:33;25.52;;;16.77;;
20725;SDS011;10524;48.132;8.518;2023-03-01T15:52:02;27.83;;;17.50;;
20725;SDS011;10524;48.132;8.518;2023-03-01T15:54:28;25.23;;;17.17;;
20725;SDS011;10524;48.132;8.518;2023-03-01T15:56:54;26.58;;;16.98;;
20725;SDS011;10524;48.132;8.518;2023-03-01T15:59:20;28.23;;;17.75;;
20725;SDS011;10524;48.132;8.518;2023-03-01T16:01:47;27.63;;;18.13;;
20725;SDS011;10524;48.132;8.518;2023-03-01T16:04:15;27.02;;;17.17;;
20725;SDS011;10524;48.132;8.518;2023-03-01T16:06:47;27.08;;;17.38;;
20725;SDS011;10524;48.132;8.518;2023-03-01T16:09:19;26.35;;;17.42;;
20725;SDS011;10524;48.132;8.518;2023-03-01T16:11:48;29.58;;;19.13;;
20725;SDS011;10524;48.132;8.518;2023-03-01T16:14:15;26.25;;;16.92;;
20725;SDS011;10524;48.132;8.518;2023-03-01T16:16:41;36.90;;;18.10;;
20725;SDS011;10524;48.132;8.518;2023-03-01T16:19:08;29.98;;;18.83;;
20725;SDS011;10524;48.132;8.518;2023-03-01T16:21:33;29.10;;;17.85;;
20725;SDS011;10524;48.132;8.518;2023-03-01T16:23:59;30.48;;;18.27;;
20725;SDS011;10524;48.132;8.518;2023-03-01T16:26:25;31.95;;;20.67;;
20725;SDS011;10524;48.132;8.518;2023-03-01T16:28:53;28.27;;;18.60;;
20725;SDS011;10524;48.132;8.518;2023-03-01T16:31:20;34.97;;;21.25;;
20725;SDS011;10524;48.132;8.518;2023-03-01T16:33:46;31.23;;;19.27;;
20725;SDS011;10524;48.132;8.518;2023-03-01T16:36:16;30.88;;;20.70;;
20725;SDS011;10524;48.132;8.518;2023-03-01T16:38:43;39.55;;;24.20;;
20725;SDS011;10524;48.132;8.518;2023-03-01T16:41:13;32.45;;;20.90;;
20725;SDS011;10524;48.132;8.518;2023-03-01T16:43:41;33.13;;;21.77;;
20725;SDS011;10524;48.132;8.518;2023-03-01T16:46:11;33.00;;;21.30;;
20725;SDS011;10524;48.132;8.518;2023-03-01T16:48:48;33.72;;;20.42;;
20725;SDS011;10524;48.132;8.518;2023-03-01T16:51:14;31.73;;;20.35;;
20725;SDS011;10524;48.132;8.518;2023-03-01T16:53:40;33.58;;;21.08;;
20725;SDS011;10524;48.132;8.518;2023-03-01T16:56:07;32.10;;;21.00;;